sensor_id;sensor_type;location;lat;lon;timestamp;P1;durP1;ratioP1;P2;durP2;ratioP2
84816;SDS011;75051;53.104;18.058;2023-12-28T00:01:24;24.10;;;11.50;;
84816;SDS011;75051;53.104;18.058;2023-12-28T00:03:50;25.70;;;14.00;;
84816;SDS011;75051;53.104;18.058;2023-12-28T00:06:16;27.40;;;13.50;;
84816;SDS011;75051;53.104;18.058;2023-12-28T00:08:42;30.00;;;16.10;;
84816;SDS011;75051;53.104;18.058;2023-12-28T00:11:08;30.50;;;12.80;;
84816;SDS011;75051;53.104;18.058;2023-12-28T00:13:34;25.80;;;12.10;;
84816;SDS011;75051;53.104;18.058;2023-12-28T00:16:00;25.30;;;12.80;;
84816;SDS011;75051;53.104;18.058;2023-12-28T00:18:26;30.20;;;13.10;;
84816;SDS011;75051;53.104;18.058;2023-12-28T00:20:52;24.40;;;13.60;;
84816;SDS011;75051;53.104;18.058;2023-12-28T00:23:18;24.60;;;12.60;;
84816;SDS011;75051;53.104;18.058;2023-12-28T00:25:46;30.40;;;13.90;;
84816;SDS011;75051;53.104;18.058;2023-12-28T00:28:12;23.50;;;12.80;;
84816;SDS011;75051;53.104;18.058;2023-12-28T00:30:38;25.70;;;11.80;;
84816;SDS011;75051;53.104;18.058;2023-12-28T00:33:04;26.40;;;13.50;;
84816;SDS011;75051;53.104;18.058;2023-12-28T00:35:31;28.70;;;14.10;;
84816;SDS011;75051;53.104;18.058;2023-12-28T00:37:56;25.20;;;12.20;;
84816;SDS011;75051;53.104;18.058;2023-12-28T00:40:22;29.60;;;15.30;;
84816;SDS011;75051;53.104;18.058;2023-12-28T00:42:48;32.20;;;16.60;;
84816;SDS011;75051;53.104;18.058;2023-12-28T00:45:14;27.90;;;13.00;;
84816;SDS011;75051;53.104;18.058;2023-12-28T00:47:41;26.30;;;13.60;;
84816;SDS011;75051;53.104;18.058;2023-12-28T00:50:09;25.50;;;13.10;;
84816;SDS011;75051;53.104;18.058;2023-12-28T00:52:40;26.40;;;13.70;;
84816;SDS011;75051;53.104;18.058;2023-12-28T00:55:07;26.30;;;12.70;;
84816;SDS011;75051;53.104;18.058;2023-12-28T00:57:34;23.30;;;11.70;;
84816;SDS011;75051;53.104;18.058;2023-12-28T01:00:00;26.00;;;12.60;;
84816;SDS011;75051;53.104;18.058;2023-12-28T01:02:27;27.60;;;14.20;;
84816;SDS011;75051;53.104;18.058;2023-12-28T01:04:53;32.10;;;12.70;;
84816;SDS011;75051;53.104;18.058;2023-12-28T01:07:19;23.60;;;10.90;;
84816;SDS011;75051;53.104;18.058;2023-12-28T01:09:45;23.60;;;13.40;;
84816;SDS011;75051;53.104;18.058;2023-12-28T01:12:12;19.30;;;10.70;;
84816;SDS011;75051;53.104;18.058;2023-12-28T01:14:38;33.10;;;15.50;;
84816;SDS011;75051;53.104;18.058;2023-12-28T01:17:04;24.60;;;10.80;;
84816;SDS011;75051;53.104;18.058;2023-12-28T01:19:30;28.30;;;15.80;;
84816;SDS011;75051;53.104;18.058;2023-12-28T01:21:56;25.60;;;14.20;;
84816;SDS011;75051;53.104;18.058;2023-12-28T01:24:22;26.50;;;13.50;;
84816;SDS011;75051;53.104;18.058;2023-12-28T01:26:47;26.20;;;13.60;;
84816;SDS011;75051;53.104;18.058;2023-12-28T01:29:13;26.80;;;12.90;;
84816;SDS011;75051;53.104;18.058;2023-12-28T01:31:41;20.20;;;12.40;;
84816;SDS011;75051;53.104;18.058;2023-12-28T01:34:06;25.20;;;12.60;;
84816;SDS011;75051;53.104;18.058;2023-12-28T01:36:34;24.90;;;15.50;;
84816;SDS011;75051;53.104;18.058;2023-12-28T01:39:00;26.80;;;13.20;;
84816;SDS011;75051;53.104;18.058;2023-12-28T01:41:26;28.90;;;15.20;;
84816;SDS011;75051;53.104;18.058;2023-12-28T01:43:52;31.20;;;15.20;;
84816;SDS011;75051;53.104;18.058;2023-12-28T01:46:19;26.70;;;13.40;;
84816;SDS011;75051;53.104;18.058;2023-12-28T01:48:48;23.90;;;11.80;;
84816;SDS011;75051;53.104;18.058;2023-12-28T01:51:16;25.60;;;14.90;;
84816;SDS011;75051;53.104;18.058;2023-12-28T01:53:43;23.40;;;12.50;;
84816;SDS011;75051;53.104;18.058;2023-12-28T01:56:18;25.30;;;13.80;;
84816;SDS011;75051;53.104;18.058;2023-12-28T01:58:46;24.60;;;13.90;;
84816;SDS011;75051;53.104;18.058;2023-12-28T02:01:14;27.20;;;12.80;;
84816;SDS011;75051;53.104;18.058;2023-12-28T02:03:40;24.20;;;14.90;;
84816;SDS011;75051;53.104;18.058;2023-12-28T02:06:06;15.30;;;8.60;;
84816;SDS011;75051;53.104;18.058;2023-12-28T02:08:33;31.60;;;15.60;;
84816;SDS011;75051;53.104;18.058;2023-12-28T02:10:59;23.80;;;13.90;;
84816;SDS011;75051;53.104;18.058;2023-12-28T02:13:25;21.00;;;12.00;;
84816;SDS011;75051;53.104;18.058;2023-12-28T02:15:54;18.00;;;10.90;;
84816;SDS011;75051;53.104;18.058;2023-12-28T02:18:25;18.30;;;9.80;;
84816;SDS011;75051;53.104;18.058;2023-12-28T02:20:57;21.80;;;12.80;;
84816;SDS011;75051;53.104;18.058;2023-12-28T02:23:27;23.40;;;14.60;;
84816;SDS011;75051;53.104;18.058;2023-12-28T02:25:54;21.20;;;15.30;;
84816;SDS011;75051;53.104;18.058;2023-12-28T02:28:20;22.60;;;11.50;;
84816;SDS011;75051;53.104;18.058;2023-12-28T02:30:46;27.60;;;11.50;;
84816;SDS011;75051;53.104;18.058;2023-12-28T02:33:20;21.70;;;13.70;;
84816;SDS011;75051;53.104;18.058;2023-12-28T02:35:57;13.90;;;8.10;;
84816;SDS011;75051;53.104;18.058;2023-12-28T02:38:26;24.60;;;13.60;;
84816;SDS011;75051;53.104;18.058;2023-12-28T02:40:55;16.00;;;6.30;;
84816;SDS011;75051;53.104;18.058;2023-12-28T02:43:22;22.30;;;11.70;;
84816;SDS011;75051;53.104;18.058;2023-12-28T02:45:48;24.30;;;13.30;;
84816;SDS011;75051;53.104;18.058;2023-12-28T02:48:14;22.80;;;14.20;;
84816;SDS011;75051;53.104;18.058;2023-12-28T02:50:39;19.30;;;12.70;;
84816;SDS011;75051;53.104;18.058;2023-12-28T02:53:05;24.60;;;12.30;;
84816;SDS011;75051;53.104;18.058;2023-12-28T02:55:31;22.60;;;11.70;;
84816;SDS011;75051;53.104;18.058;2023-12-28T02:57:58;21.40;;;10.20;;
84816;SDS011;75051;53.104;18.058;2023-12-28T03:00:27;21.00;;;11.00;;
84816;SDS011;75051;53.104;18.058;2023-12-28T03:02:53;17.90;;;9.80;;
84816;SDS011;75051;53.104;18.058;2023-12-28T03:05:19;18.80;;;12.10;;
84816;SDS011;75051;53.104;18.058;2023-12-28T03:07:45;23.30;;;11.70;;
84816;SDS011;75051;53.104;18.058;2023-12-28T03:10:11;19.00;;;11.20;;
84816;SDS011;75051;53.104;18.058;2023-12-28T03:12:38;19.60;;;10.50;;
84816;SDS011;75051;53.104;18.058;2023-12-28T03:15:04;18.20;;;11.20;;
84816;SDS011;75051;53.104;18.058;2023-12-28T03:17:31;24.50;;;10.10;;
84816;SDS011;75051;53.104;18.058;2023-12-28T03:19:58;14.70;;;7.70;;
84816;SDS011;75051;53.104;18.058;2023-12-28T03:22:25;21.00;;;10.60;;
84816;SDS011;75051;53.104;18.058;2023-12-28T03:24:51;22.20;;;13.70;;
84816;SDS011;75051;53.104;18.058;2023-12-28T03:27:17;17.60;;;12.10;;
84816;SDS011;75051;53.104;18.058;2023-12-28T03:29:43;17.00;;;10.00;;
84816;SDS011;75051;53.104;18.058;2023-12-28T03:32:09;18.10;;;11.10;;
84816;SDS011;75051;53.104;18.058;2023-12-28T03:34:36;19.50;;;10.80;;
84816;SDS011;75051;53.104;18.058;2023-12-28T03:37:02;15.80;;;7.80;;
84816;SDS011;75051;53.104;18.058;2023-12-28T03:39:28;22.50;;;13.70;;
84816;SDS011;75051;53.104;18.058;2023-12-28T03:41:54;18.40;;;10.20;;
84816;SDS011;75051;53.104;18.058;2023-12-28T03:44:20;16.80;;;10.50;;
84816;SDS011;75051;53.104;18.058;2023-12-28T03:46:48;20.60;;;10.30;;
84816;SDS011;75051;53.104;18.058;2023-12-28T03:49:18;18.60;;;10.30;;
84816;SDS011;75051;53.104;18.058;2023-12-28T03:51:45;19.40;;;10.70;;
84816;SDS011;75051;53.104;18.058;2023-12-28T03:54:11;19.60;;;10.20;;
84816;SDS011;75051;53.104;18.058;2023-12-28T03:56:38;16.40;;;10.20;;
84816;SDS011;75051;53.104;18.058;2023-12-28T03:59:08;18.80;;;10.30;;
84816;SDS011;75051;53.104;18.058;2023-12-28T04:01:35;20.30;;;10.40;;
84816;SDS011;75051;53.104;18.058;2023-12-28T04:04:02;20.80;;;10.00;;
84816;SDS011;75051;53.104;18.058;2023-12-28T04:06:28;20.80;;;11.20;;
84816;SDS011;75051;53.104;18.058;2023-12-28T04:08:54;22.50;;;11.80;;
84816;SDS011;75051;53.104;18.058;2023-12-28T04:11:20;16.60;;;8.90;;
84816;SDS011;75051;53.104;18.058;2023-12-28T04:13:46;17.30;;;9.20;;
84816;SDS011;75051;53.104;18.058;2023-12-28T04:16:14;18.50;;;10.00;;
84816;SDS011;75051;53.104;18.058;2023-12-28T04:18:41;18.30;;;9.70;;
84816;SDS011;75051;53.104;18.058;2023-12-28T04:21:08;22.20;;;11.20;;
84816;SDS011;75051;53.104;18.058;2023-12-28T04:23:36;16.90;;;9.30;;
84816;SDS011;75051;53.104;18.058;2023-12-28T04:26:03;17.40;;;9.30;;
84816;SDS011;75051;53.104;18.058;2023-12-28T04:28:29;15.20;;;10.20;;
84816;SDS011;75051;53.104;18.058;2023-12-28T04:30:57;10.20;;;6.20;;
84816;SDS011;75051;53.104;18.058;2023-12-28T04:33:23;19.60;;;11.20;;
84816;SDS011;75051;53.104;18.058;2023-12-28T04:35:49;19.90;;;9.30;;
84816;SDS011;75051;53.104;18.058;2023-12-28T04:38:15;18.40;;;11.40;;
84816;SDS011;75051;53.104;18.058;2023-12-28T04:40:41;15.40;;;10.30;;
84816;SDS011;75051;53.104;18.058;2023-12-28T04:43:07;19.50;;;11.70;;
84816;SDS011;75051;53.104;18.058;2023-12-28T04:45:33;21.10;;;11.60;;
84816;SDS011;75051;53.104;18.058;2023-12-28T04:47:59;15.30;;;9.70;;
84816;SDS011;75051;53.104;18.058;2023-12-28T04:50:25;18.30;;;11.00;;
84816;SDS011;75051;53.104;18.058;2023-12-28T04:52:51;18.30;;;12.10;;
84816;SDS011;75051;53.104;18.058;2023-12-28T04:55:17;16.80;;;12.30;;
84816;SDS011;75051;53.104;18.058;2023-12-28T04:57:43;16.40;;;9.30;;
84816;SDS011;75051;53.104;18.058;2023-12-28T05:00:09;16.20;;;9.60;;
84816;SDS011;75051;53.104;18.058;2023-12-28T05:02:36;18.60;;;10.20;;
84816;SDS011;75051;53.104;18.058;2023-12-28T05:05:02;19.10;;;10.90;;
84816;SDS011;75051;53.104;18.058;2023-12-28T05:07:28;19.90;;;11.40;;
84816;SDS011;75051;53.104;18.058;2023-12-28T05:09:54;23.50;;;11.10;;
84816;SDS011;75051;53.104;18.058;2023-12-28T05:12:20;19.90;;;10.60;;
84816;SDS011;75051;53.104;18.058;2023-12-28T05:14:46;18.80;;;10.70;;
84816;SDS011;75051;53.104;18.058;2023-12-28T05:17:12;19.90;;;11.30;;
84816;SDS011;75051;53.104;18.058;2023-12-28T05:19:37;19.00;;;7.40;;
84816;SDS011;75051;53.104;18.058;2023-12-28T05:22:03;18.70;;;11.40;;
84816;SDS011;75051;53.104;18.058;2023-12-28T05:24:32;21.20;;;11.70;;
84816;SDS011;75051;53.104;18.058;2023-12-28T05:26:58;16.50;;;10.90;;
84816;SDS011;75051;53.104;18.058;2023-12-28T05:29:24;22.20;;;10.90;;
84816;SDS011;75051;53.104;18.058;2023-12-28T05:31:50;18.60;;;10.00;;
84816;SDS011;75051;53.104;18.058;2023-12-28T05:34:16;20.60;;;12.10;;
84816;SDS011;75051;53.104;18.058;2023-12-28T05:36:42;20.70;;;10.70;;
84816;SDS011;75051;53.104;18.058;2023-12-28T05:39:11;22.80;;;10.20;;
84816;SDS011;75051;53.104;18.058;2023-12-28T05:41:39;20.70;;;10.50;;
84816;SDS011;75051;53.104;18.058;2023-12-28T05:44:06;17.10;;;10.50;;
84816;SDS011;75051;53.104;18.058;2023-12-28T05:46:32;21.10;;;11.00;;
84816;SDS011;75051;53.104;18.058;2023-12-28T05:48:58;20.80;;;11.20;;
84816;SDS011;75051;53.104;18.058;2023-12-28T05:51:24;19.70;;;10.10;;
84816;SDS011;75051;53.104;18.058;2023-12-28T05:53:50;20.20;;;11.30;;
84816;SDS011;75051;53.104;18.058;2023-12-28T05:56:17;19.50;;;10.80;;
84816;SDS011;75051;53.104;18.058;2023-12-28T05:58:43;17.60;;;9.90;;
84816;SDS011;75051;53.104;18.058;2023-12-28T06:01:09;17.70;;;9.40;;
84816;SDS011;75051;53.104;18.058;2023-12-28T06:03:35;16.00;;;9.00;;
84816;SDS011;75051;53.104;18.058;2023-12-28T06:06:01;22.40;;;10.30;;
84816;SDS011;75051;53.104;18.058;2023-12-28T06:08:27;17.30;;;10.80;;
84816;SDS011;75051;53.104;18.058;2023-12-28T06:10:53;15.70;;;8.50;;
84816;SDS011;75051;53.104;18.058;2023-12-28T06:13:19;17.50;;;8.50;;
84816;SDS011;75051;53.104;18.058;2023-12-28T06:15:46;17.50;;;10.00;;
84816;SDS011;75051;53.104;18.058;2023-12-28T06:18:12;22.40;;;11.70;;
84816;SDS011;75051;53.104;18.058;2023-12-28T06:20:38;18.20;;;10.80;;
84816;SDS011;75051;53.104;18.058;2023-12-28T06:23:04;15.20;;;10.10;;
84816;SDS011;75051;53.104;18.058;2023-12-28T06:25:33;20.70;;;10.30;;
84816;SDS011;75051;53.104;18.058;2023-12-28T06:27:59;17.10;;;9.30;;
84816;SDS011;75051;53.104;18.058;2023-12-28T06:30:25;18.40;;;10.10;;
84816;SDS011;75051;53.104;18.058;2023-12-28T06:32:51;19.90;;;10.60;;
84816;SDS011;75051;53.104;18.058;2023-12-28T06:35:17;16.60;;;10.00;;
84816;SDS011;75051;53.104;18.058;2023-12-28T06:37:45;13.70;;;8.10;;
84816;SDS011;75051;53.104;18.058;2023-12-28T06:40:11;15.70;;;9.40;;
84816;SDS011;75051;53.104;18.058;2023-12-28T06:42:38;16.20;;;8.40;;
84816;SDS011;75051;53.104;18.058;2023-12-28T06:45:04;16.60;;;9.90;;
84816;SDS011;75051;53.104;18.058;2023-12-28T06:47:30;15.00;;;8.20;;
84816;SDS011;75051;53.104;18.058;2023-12-28T06:49:56;19.50;;;11.10;;
84816;SDS011;75051;53.104;18.058;2023-12-28T06:52:22;15.70;;;9.40;;
84816;SDS011;75051;53.104;18.058;2023-12-28T06:54:50;16.70;;;9.90;;
84816;SDS011;75051;53.104;18.058;2023-12-28T06:57:17;18.10;;;10.20;;
84816;SDS011;75051;53.104;18.058;2023-12-28T06:59:43;19.40;;;10.70;;
84816;SDS011;75051;53.104;18.058;2023-12-28T07:02:09;16.40;;;9.10;;
84816;SDS011;75051;53.104;18.058;2023-12-28T07:04:35;17.60;;;10.00;;
84816;SDS011;75051;53.104;18.058;2023-12-28T07:07:01;20.60;;;11.20;;
84816;SDS011;75051;53.104;18.058;2023-12-28T07:09:27;18.50;;;10.10;;
84816;SDS011;75051;53.104;18.058;2023-12-28T07:11:53;17.50;;;9.30;;
84816;SDS011;75051;53.104;18.058;2023-12-28T07:14:19;14.80;;;9.20;;
84816;SDS011;75051;53.104;18.058;2023-12-28T07:16:45;15.90;;;8.40;;
84816;SDS011;75051;53.104;18.058;2023-12-28T07:19:11;14.00;;;8.60;;
84816;SDS011;75051;53.104;18.058;2023-12-28T07:21:37;16.00;;;10.90;;
84816;SDS011;75051;53.104;18.058;2023-12-28T07:24:05;20.20;;;10.50;;
84816;SDS011;75051;53.104;18.058;2023-12-28T07:26:31;16.50;;;8.80;;
84816;SDS011;75051;53.104;18.058;2023-12-28T07:28:57;12.30;;;8.00;;
84816;SDS011;75051;53.104;18.058;2023-12-28T07:31:26;17.00;;;9.20;;
84816;SDS011;75051;53.104;18.058;2023-12-28T07:33:53;18.60;;;10.00;;
84816;SDS011;75051;53.104;18.058;2023-12-28T07:36:23;14.30;;;8.40;;
84816;SDS011;75051;53.104;18.058;2023-12-28T07:38:49;15.50;;;8.50;;
84816;SDS011;75051;53.104;18.058;2023-12-28T07:41:14;17.70;;;8.10;;
84816;SDS011;75051;53.104;18.058;2023-12-28T07:43:41;14.50;;;7.80;;
84816;SDS011;75051;53.104;18.058;2023-12-28T07:46:07;9.90;;;6.50;;
84816;SDS011;75051;53.104;18.058;2023-12-28T07:48:33;10.70;;;7.50;;
84816;SDS011;75051;53.104;18.058;2023-12-28T07:51:05;13.50;;;8.20;;
84816;SDS011;75051;53.104;18.058;2023-12-28T07:53:34;10.80;;;7.50;;
84816;SDS011;75051;53.104;18.058;2023-12-28T07:55:59;13.70;;;7.30;;
84816;SDS011;75051;53.104;18.058;2023-12-28T07:58:25;12.30;;;7.50;;
84816;SDS011;75051;53.104;18.058;2023-12-28T08:00:51;14.40;;;7.80;;
84816;SDS011;75051;53.104;18.058;2023-12-28T08:03:18;12.30;;;7.90;;
84816;SDS011;75051;53.104;18.058;2023-12-28T08:05:46;11.20;;;6.80;;
84816;SDS011;75051;53.104;18.058;2023-12-28T08:08:12;13.90;;;9.20;;
84816;SDS011;75051;53.104;18.058;2023-12-28T08:10:38;9.40;;;6.50;;
84816;SDS011;75051;53.104;18.058;2023-12-28T08:13:04;9.10;;;6.80;;
84816;SDS011;75051;53.104;18.058;2023-12-28T08:15:30;13.20;;;6.90;;
84816;SDS011;75051;53.104;18.058;2023-12-28T08:17:56;11.30;;;6.10;;
84816;SDS011;75051;53.104;18.058;2023-12-28T08:20:22;13.70;;;9.20;;
84816;SDS011;75051;53.104;18.058;2023-12-28T08:22:49;11.80;;;8.40;;
84816;SDS011;75051;53.104;18.058;2023-12-28T08:25:15;10.40;;;6.40;;
84816;SDS011;75051;53.104;18.058;2023-12-28T08:27:41;12.90;;;6.20;;
84816;SDS011;75051;53.104;18.058;2023-12-28T08:30:07;8.50;;;5.90;;
84816;SDS011;75051;53.104;18.058;2023-12-28T08:32:34;9.00;;;6.70;;
84816;SDS011;75051;53.104;18.058;2023-12-28T08:35:00;11.50;;;7.90;;
84816;SDS011;75051;53.104;18.058;2023-12-28T08:37:28;11.90;;;6.30;;
84816;SDS011;75051;53.104;18.058;2023-12-28T08:39:54;11.70;;;6.00;;
84816;SDS011;75051;53.104;18.058;2023-12-28T08:42:21;14.80;;;6.90;;
84816;SDS011;75051;53.104;18.058;2023-12-28T08:44:47;11.40;;;7.20;;
84816;SDS011;75051;53.104;18.058;2023-12-28T08:47:14;10.50;;;6.90;;
84816;SDS011;75051;53.104;18.058;2023-12-28T08:49:40;8.90;;;6.10;;
84816;SDS011;75051;53.104;18.058;2023-12-28T08:52:07;12.60;;;7.00;;
84816;SDS011;75051;53.104;18.058;2023-12-28T08:54:33;12.20;;;7.70;;
84816;SDS011;75051;53.104;18.058;2023-12-28T08:56:59;10.20;;;7.00;;
84816;SDS011;75051;53.104;18.058;2023-12-28T08:59:26;13.60;;;7.60;;
84816;SDS011;75051;53.104;18.058;2023-12-28T09:01:55;13.30;;;6.80;;
84816;SDS011;75051;53.104;18.058;2023-12-28T09:04:22;11.20;;;7.60;;
84816;SDS011;75051;53.104;18.058;2023-12-28T09:06:48;13.50;;;7.50;;
84816;SDS011;75051;53.104;18.058;2023-12-28T09:09:14;13.40;;;6.20;;
84816;SDS011;75051;53.104;18.058;2023-12-28T09:11:40;9.90;;;6.20;;
84816;SDS011;75051;53.104;18.058;2023-12-28T09:14:11;7.40;;;5.20;;
84816;SDS011;75051;53.104;18.058;2023-12-28T09:16:37;7.60;;;4.80;;
84816;SDS011;75051;53.104;18.058;2023-12-28T09:19:04;9.90;;;5.50;;
84816;SDS011;75051;53.104;18.058;2023-12-28T09:21:30;9.90;;;5.70;;
84816;SDS011;75051;53.104;18.058;2023-12-28T09:23:57;10.10;;;6.60;;
84816;SDS011;75051;53.104;18.058;2023-12-28T09:26:23;9.30;;;5.70;;
84816;SDS011;75051;53.104;18.058;2023-12-28T09:28:49;8.90;;;6.30;;
84816;SDS011;75051;53.104;18.058;2023-12-28T09:31:15;8.80;;;5.40;;
84816;SDS011;75051;53.104;18.058;2023-12-28T09:33:40;8.10;;;5.50;;
84816;SDS011;75051;53.104;18.058;2023-12-28T09:36:06;9.60;;;5.90;;
84816;SDS011;75051;53.104;18.058;2023-12-28T09:38:33;9.80;;;6.40;;
84816;SDS011;75051;53.104;18.058;2023-12-28T09:41:04;11.40;;;7.20;;
84816;SDS011;75051;53.104;18.058;2023-12-28T09:43:38;11.80;;;6.30;;
84816;SDS011;75051;53.104;18.058;2023-12-28T09:46:11;10.90;;;6.70;;
84816;SDS011;75051;53.104;18.058;2023-12-28T09:48:37;16.40;;;9.00;;
84816;SDS011;75051;53.104;18.058;2023-12-28T09:51:06;13.60;;;7.90;;
84816;SDS011;75051;53.104;18.058;2023-12-28T09:53:36;11.30;;;5.90;;
84816;SDS011;75051;53.104;18.058;2023-12-28T09:56:02;16.20;;;9.00;;
84816;SDS011;75051;53.104;18.058;2023-12-28T09:58:29;10.70;;;6.10;;
84816;SDS011;75051;53.104;18.058;2023-12-28T10:00:58;9.50;;;6.00;;
84816;SDS011;75051;53.104;18.058;2023-12-28T10:03:25;8.00;;;6.30;;
84816;SDS011;75051;53.104;18.058;2023-12-28T10:05:51;10.40;;;6.80;;
84816;SDS011;75051;53.104;18.058;2023-12-28T10:08:18;10.80;;;7.60;;
84816;SDS011;75051;53.104;18.058;2023-12-28T10:10:44;9.80;;;6.20;;
84816;SDS011;75051;53.104;18.058;2023-12-28T10:13:20;9.00;;;6.60;;
84816;SDS011;75051;53.104;18.058;2023-12-28T10:15:49;10.40;;;6.90;;
84816;SDS011;75051;53.104;18.058;2023-12-28T10:18:16;9.80;;;6.40;;
84816;SDS011;75051;53.104;18.058;2023-12-28T10:20:48;11.50;;;6.30;;
84816;SDS011;75051;53.104;18.058;2023-12-28T10:23:16;7.50;;;4.90;;
84816;SDS011;75051;53.104;18.058;2023-12-28T10:25:44;10.50;;;5.80;;
84816;SDS011;75051;53.104;18.058;2023-12-28T10:28:11;12.90;;;7.50;;
84816;SDS011;75051;53.104;18.058;2023-12-28T10:30:38;9.30;;;6.90;;
84816;SDS011;75051;53.104;18.058;2023-12-28T10:33:07;15.30;;;7.70;;
84816;SDS011;75051;53.104;18.058;2023-12-28T10:35:33;9.30;;;6.20;;
84816;SDS011;75051;53.104;18.058;2023-12-28T10:38:00;9.80;;;6.30;;
84816;SDS011;75051;53.104;18.058;2023-12-28T10:40:29;9.10;;;7.00;;
84816;SDS011;75051;53.104;18.058;2023-12-28T10:43:05;9.70;;;5.90;;
84816;SDS011;75051;53.104;18.058;2023-12-28T10:45:32;7.80;;;5.00;;
84816;SDS011;75051;53.104;18.058;2023-12-28T10:48:07;7.20;;;4.60;;
84816;SDS011;75051;53.104;18.058;2023-12-28T10:50:38;6.30;;;4.90;;
84816;SDS011;75051;53.104;18.058;2023-12-28T10:53:14;6.90;;;4.70;;
84816;SDS011;75051;53.104;18.058;2023-12-28T10:55:48;8.40;;;5.00;;
84816;SDS011;75051;53.104;18.058;2023-12-28T10:58:28;8.30;;;4.70;;
84816;SDS011;75051;53.104;18.058;2023-12-28T11:01:05;7.40;;;5.10;;
84816;SDS011;75051;53.104;18.058;2023-12-28T11:03:36;6.10;;;5.00;;
84816;SDS011;75051;53.104;18.058;2023-12-28T11:06:06;9.00;;;4.50;;
84816;SDS011;75051;53.104;18.058;2023-12-28T11:08:36;8.30;;;5.10;;
84816;SDS011;75051;53.104;18.058;2023-12-28T11:11:04;7.80;;;4.40;;
84816;SDS011;75051;53.104;18.058;2023-12-28T11:13:32;5.50;;;3.90;;
84816;SDS011;75051;53.104;18.058;2023-12-28T11:15:59;6.80;;;4.60;;
84816;SDS011;75051;53.104;18.058;2023-12-28T11:18:26;6.50;;;4.20;;
84816;SDS011;75051;53.104;18.058;2023-12-28T11:20:54;7.10;;;4.10;;
84816;SDS011;75051;53.104;18.058;2023-12-28T11:23:24;10.80;;;5.80;;
84816;SDS011;75051;53.104;18.058;2023-12-28T11:25:51;9.50;;;6.00;;
84816;SDS011;75051;53.104;18.058;2023-12-28T11:28:17;8.20;;;5.80;;
84816;SDS011;75051;53.104;18.058;2023-12-28T11:30:43;7.70;;;5.10;;
84816;SDS011;75051;53.104;18.058;2023-12-28T11:33:09;7.10;;;4.50;;
84816;SDS011;75051;53.104;18.058;2023-12-28T11:35:38;14.60;;;7.60;;
84816;SDS011;75051;53.104;18.058;2023-12-28T11:38:08;8.40;;;5.10;;
84816;SDS011;75051;53.104;18.058;2023-12-28T11:40:41;10.10;;;6.10;;
84816;SDS011;75051;53.104;18.058;2023-12-28T11:43:15;7.50;;;4.60;;
84816;SDS011;75051;53.104;18.058;2023-12-28T11:45:48;6.20;;;3.90;;
84816;SDS011;75051;53.104;18.058;2023-12-28T11:48:26;8.60;;;7.60;;
84816;SDS011;75051;53.104;18.058;2023-12-28T11:50:54;8.70;;;5.50;;
84816;SDS011;75051;53.104;18.058;2023-12-28T11:53:23;7.30;;;4.40;;
84816;SDS011;75051;53.104;18.058;2023-12-28T11:55:49;6.90;;;4.90;;
84816;SDS011;75051;53.104;18.058;2023-12-28T11:58:16;6.60;;;4.80;;
84816;SDS011;75051;53.104;18.058;2023-12-28T12:00:45;6.60;;;4.50;;
84816;SDS011;75051;53.104;18.058;2023-12-28T12:03:13;6.00;;;4.30;;
84816;SDS011;75051;53.104;18.058;2023-12-28T12:05:39;6.50;;;4.20;;
84816;SDS011;75051;53.104;18.058;2023-12-28T12:08:06;6.80;;;4.00;;
84816;SDS011;75051;53.104;18.058;2023-12-28T12:10:34;6.90;;;4.30;;
84816;SDS011;75051;53.104;18.058;2023-12-28T12:13:00;9.40;;;5.20;;
84816;SDS011;75051;53.104;18.058;2023-12-28T12:15:31;7.70;;;5.00;;
84816;SDS011;75051;53.104;18.058;2023-12-28T12:17:58;7.80;;;5.00;;
84816;SDS011;75051;53.104;18.058;2023-12-28T12:20:24;7.20;;;5.20;;
84816;SDS011;75051;53.104;18.058;2023-12-28T12:22:51;11.20;;;5.80;;
84816;SDS011;75051;53.104;18.058;2023-12-28T12:25:18;8.00;;;4.50;;
84816;SDS011;75051;53.104;18.058;2023-12-28T12:27:45;10.10;;;6.80;;
84816;SDS011;75051;53.104;18.058;2023-12-28T12:30:11;10.80;;;6.50;;
84816;SDS011;75051;53.104;18.058;2023-12-28T12:32:37;10.60;;;6.70;;
84816;SDS011;75051;53.104;18.058;2023-12-28T12:35:05;15.80;;;8.20;;
84816;SDS011;75051;53.104;18.058;2023-12-28T12:37:37;9.10;;;5.30;;
84816;SDS011;75051;53.104;18.058;2023-12-28T12:40:04;8.60;;;5.20;;
84816;SDS011;75051;53.104;18.058;2023-12-28T12:42:32;12.20;;;5.40;;
84816;SDS011;75051;53.104;18.058;2023-12-28T12:44:58;12.50;;;5.70;;
84816;SDS011;75051;53.104;18.058;2023-12-28T12:47:31;9.70;;;5.10;;
84816;SDS011;75051;53.104;18.058;2023-12-28T12:49:58;6.70;;;4.50;;
84816;SDS011;75051;53.104;18.058;2023-12-28T12:52:26;6.90;;;4.80;;
84816;SDS011;75051;53.104;18.058;2023-12-28T12:54:54;9.00;;;4.80;;
84816;SDS011;75051;53.104;18.058;2023-12-28T12:57:25;7.70;;;5.30;;
84816;SDS011;75051;53.104;18.058;2023-12-28T12:59:53;7.30;;;4.60;;
84816;SDS011;75051;53.104;18.058;2023-12-28T13:02:22;6.80;;;4.90;;
84816;SDS011;75051;53.104;18.058;2023-12-28T13:04:52;6.80;;;5.70;;
84816;SDS011;75051;53.104;18.058;2023-12-28T13:07:19;8.60;;;5.20;;
84816;SDS011;75051;53.104;18.058;2023-12-28T13:09:45;7.30;;;5.60;;
84816;SDS011;75051;53.104;18.058;2023-12-28T13:12:11;7.20;;;5.10;;
84816;SDS011;75051;53.104;18.058;2023-12-28T13:14:37;8.60;;;5.00;;
84816;SDS011;75051;53.104;18.058;2023-12-28T13:17:03;9.20;;;5.60;;
84816;SDS011;75051;53.104;18.058;2023-12-28T13:19:29;8.40;;;6.70;;
84816;SDS011;75051;53.104;18.058;2023-12-28T13:21:55;5.70;;;5.10;;
84816;SDS011;75051;53.104;18.058;2023-12-28T13:24:22;6.00;;;4.30;;
84816;SDS011;75051;53.104;18.058;2023-12-28T13:26:48;6.30;;;4.10;;
84816;SDS011;75051;53.104;18.058;2023-12-28T13:29:15;6.20;;;4.40;;
84816;SDS011;75051;53.104;18.058;2023-12-28T13:31:41;8.30;;;6.10;;
84816;SDS011;75051;53.104;18.058;2023-12-28T13:34:07;9.00;;;5.80;;
84816;SDS011;75051;53.104;18.058;2023-12-28T13:36:34;11.10;;;6.20;;
84816;SDS011;75051;53.104;18.058;2023-12-28T13:39:00;8.50;;;4.90;;
84816;SDS011;75051;53.104;18.058;2023-12-28T13:41:26;7.50;;;4.50;;
84816;SDS011;75051;53.104;18.058;2023-12-28T13:43:52;7.30;;;4.30;;
84816;SDS011;75051;53.104;18.058;2023-12-28T13:46:24;4.60;;;3.40;;
84816;SDS011;75051;53.104;18.058;2023-12-28T13:48:51;7.30;;;3.90;;
84816;SDS011;75051;53.104;18.058;2023-12-28T13:51:17;5.90;;;3.80;;
84816;SDS011;75051;53.104;18.058;2023-12-28T13:53:43;6.70;;;4.50;;
84816;SDS011;75051;53.104;18.058;2023-12-28T13:56:11;6.10;;;4.10;;
84816;SDS011;75051;53.104;18.058;2023-12-28T13:58:36;5.70;;;4.10;;
84816;SDS011;75051;53.104;18.058;2023-12-28T14:01:02;5.60;;;4.80;;
84816;SDS011;75051;53.104;18.058;2023-12-28T14:03:29;5.80;;;3.60;;
84816;SDS011;75051;53.104;18.058;2023-12-28T14:05:55;6.80;;;3.60;;
84816;SDS011;75051;53.104;18.058;2023-12-28T14:08:21;5.20;;;3.50;;
84816;SDS011;75051;53.104;18.058;2023-12-28T14:10:47;6.50;;;3.70;;
84816;SDS011;75051;53.104;18.058;2023-12-28T14:13:13;6.10;;;3.40;;
84816;SDS011;75051;53.104;18.058;2023-12-28T14:15:40;8.80;;;4.50;;
84816;SDS011;75051;53.104;18.058;2023-12-28T14:18:06;6.90;;;4.40;;
84816;SDS011;75051;53.104;18.058;2023-12-28T14:20:34;8.30;;;4.90;;